| time (UTC) | temp F | wind direction | speed MPH | gust MPH | rain 1hr in | rain 24hr in | rain mn in | humidity % | barometer mb |
| 20260509021552 | 58 | 355 | 0.0 | 2.0 | 0.00 | 0.00 | 0.00 | 38 | 1005.4 |
| 20260509020049 | 61 | 355 | 0.0 | 0.0 | 0.00 | 0.00 | 0.00 | 35 | 1005.3 |
| 20260509014549 | 63 | 355 | 0.0 | 0.0 | 0.00 | 0.00 | 0.00 | 33 | 1005.1 |
| 20260509013053 | 65 | 355 | 0.0 | 0.0 | 0.00 | 0.00 | 0.00 | 32 | 1005.1 |
| 20260509011547 | 66 | 360 | 0.0 | 1.0 | 0.00 | 0.00 | 0.00 | 30 | 1005.2 |
| 20260509010047 | 67 | 351 | 0.0 | 8.0 | 0.00 | 0.00 | 0.00 | 29 | 1005.2 |
| 20260509004544 | 67 | 355 | 2.0 | 12.0 | 0.00 | 0.00 | 0.00 | 27 | 1005.2 |
| 20260509003056 | 67 | 340 | 0.0 | 9.0 | 0.00 | 0.00 | 0.00 | 28 | 1005.3 |
| 20260509001541 | 68 | 355 | 5.0 | 14.0 | 0.00 | 0.00 | 0.00 | 27 | 1005.4 |
| 20260509000043 | 67 | 5 | 4.0 | 13.0 | 0.00 | 0.00 | 0.00 | 27 | 1005.5 |
| 20260508234541 | 69 | 344 | 11.0 | 16.0 | 0.00 | 0.00 | 0.00 | 25 | 1005.6 |
| 20260508233037 | 70 | 344 | 9.0 | 19.0 | 0.00 | 0.00 | 0.00 | 25 | 1005.8 |
| 20260508231536 | 69 | 324 | 10.0 | 19.0 | 0.00 | 0.00 | 0.00 | 26 | 1005.9 |
| 20260508230040 | 68 | 355 | 11.0 | 20.0 | 0.00 | 0.00 | 0.00 | 25 | 1006.0 |
| 20260508224534 | 70 | 355 | 10.0 | 20.0 | 0.00 | 0.00 | 0.00 | 25 | 1006.3 |
| 20260508223035 | 69 | 5 | 14.0 | 26.0 | 0.00 | 0.00 | 0.00 | 25 | 1006.4 |
| 20260508221532 | 69 | 348 | 9.0 | 20.0 | 0.00 | 0.00 | 0.00 | 26 | 1006.5 |
| 20260508220026 | 70 | 360 | 12.0 | 22.0 | 0.00 | 0.00 | 0.00 | 25 | 1006.6 |
| 20260508214526 | 69 | 12 | 14.0 | 23.0 | 0.00 | 0.00 | 0.00 | 24 | 1006.7 |
| 20260508213026 | 69 | 9 | 16.0 | 27.0 | 0.00 | 0.00 | 0.00 | 25 | 1006.8 |
| 20260508211523 | 69 | 321 | 15.0 | 30.0 | 0.00 | 0.00 | 0.00 | 25 | 1007.1 |
| 20260508210020 | 70 | 333 | 10.0 | 26.0 | 0.00 | 0.00 | 0.00 | 26 | 1007.3 |
| 20260508204518 | 69 | 360 | 8.0 | 26.0 | 0.00 | 0.00 | 0.00 | 26 | 1007.4 |
| 20260508203019 | 68 | 318 | 18.0 | 30.0 | 0.00 | 0.00 | 0.00 | 26 | 1007.6 |
| 20260508201522 | 70 | 348 | 20.0 | 32.0 | 0.00 | 0.00 | 0.00 | 25 | 1007.7 |
| 20260508200020 | 68 | 5 | 19.0 | 33.0 | 0.00 | 0.00 | 0.00 | 26 | 1007.7 |
| 20260508194512 | 69 | 21 | 17.0 | 28.0 | 0.00 | 0.00 | 0.00 | 26 | 1007.7 |
| 20260508193017 | 69 | 5 | 18.0 | 30.0 | 0.00 | 0.00 | 0.00 | 26 | 1007.9 |
| 20260508191515 | 68 | 342 | 17.0 | 33.0 | 0.00 | 0.00 | 0.00 | 27 | 1008.2 |
| 20260508190009 | 69 | 326 | 20.0 | 31.0 | 0.00 | 0.00 | 0.00 | 26 | 1008.1 |
| 20260508184509 | 68 | 340 | 17.0 | 36.0 | 0.00 | 0.00 | 0.00 | 27 | 1008.3 |
| 20260508183005 | 69 | 331 | 17.0 | 30.0 | 0.00 | 0.00 | 0.00 | 26 | 1008.4 |
| 20260508181632 | 68 | 338 | 21.0 | 31.0 | 0.00 | 0.00 | 0.00 | 28 | 1008.6 |
| 20260508180043 | 67 | 339 | 18.0 | 34.0 | 0.00 | 0.00 | 0.00 | 31 | 1008.6 |
| 20260508174543 | 66 | 337 | 23.0 | 30.0 | 0.00 | 0.00 | 0.00 | 30 | 1008.8 |
| 20260508173041 | 66 | 343 | 15.0 | 26.0 | 0.00 | 0.00 | 0.00 | 32 | 1008.9 |
| 20260508171537 | 66 | 321 | 17.0 | 27.0 | 0.00 | 0.00 | 0.00 | 33 | 1008.9 |
| 20260508170037 | 65 | 342 | 16.0 | 30.0 | 0.00 | 0.00 | 0.00 | 31 | 1009.1 |
| 20260508164533 | 65 | 346 | 21.0 | 31.0 | 0.00 | 0.00 | 0.00 | 29 | 1009.1 |
| 20260508163033 | 66 | 321 | 14.0 | 31.0 | 0.00 | 0.00 | 0.00 | 30 | 1008.9 |
| 20260508161533 | 67 | 338 | 9.0 | 30.0 | 0.00 | 0.00 | 0.00 | 31 | 1009.0 |
| 20260508160031 | 67 | 331 | 12.0 | 27.0 | 0.00 | 0.00 | 0.00 | 32 | 1009.0 |
| 20260508154531 | 67 | 323 | 17.0 | 27.0 | 0.00 | 0.00 | 0.00 | 32 | 1009.1 |
| 20260508153035 | 66 | 351 | 9.0 | 24.0 | 0.00 | 0.00 | 0.00 | 35 | 1009.1 |
| 20260508151522 | 65 | 325 | 20.0 | 27.0 | 0.00 | 0.00 | 0.00 | 38 | 1009.3 |
| 20260508150020 | 65 | 313 | 16.0 | 27.0 | 0.00 | 0.00 | 0.00 | 38 | 1009.3 |
| 20260508144519 | 65 | 333 | 15.0 | 23.0 | 0.00 | 0.00 | 0.00 | 38 | 1009.3 |
| 20260508143023 | 64 | 333 | 13.0 | 22.0 | 0.00 | 0.00 | 0.00 | 39 | 1009.4 |
| 20260508141517 | 64 | 319 | 9.0 | 20.0 | 0.00 | 0.00 | 0.00 | 39 | 1009.4 |
| 20260508140013 | 63 | 320 | 6.0 | 17.0 | 0.00 | 0.00 | 0.00 | 41 | 1009.3 |
| 20260508134509 | 62 | 302 | 7.0 | 17.0 | 0.00 | 0.00 | 0.00 | 43 | 1009.5 |
| 20260508133010 | 60 | 326 | 9.0 | 18.0 | 0.00 | 0.00 | 0.00 | 44 | 1009.5 |
| 20260508131502 | 58 | 315 | 7.0 | 16.0 | 0.00 | 0.00 | 0.00 | 47 | 1009.4 |
| 20260508130058 | 56 | 300 | 7.0 | 15.0 | 0.00 | 0.00 | 0.00 | 49 | 1009.4 |
| 20260508124553 | 55 | 309 | 5.0 | 16.0 | 0.00 | 0.00 | 0.00 | 51 | 1009.3 |
| 20260508123113 | 54 | 302 | 2.0 | 19.0 | 0.00 | 0.00 | 0.00 | 52 | 1009.2 |
| 20260508121516 | 54 | 316 | 0.0 | 17.0 | 0.00 | 0.00 | 0.00 | 53 | 1009.1 |
| 20260508120015 | 53 | 327 | 4.0 | 12.0 | 0.00 | 0.00 | 0.00 | 54 | 1009.0 |
| 20260508114513 | 53 | 311 | 1.0 | 11.0 | 0.00 | 0.00 | 0.00 | 54 | 1009.1 |
| 20260508113014 | 53 | 290 | 0.0 | 14.0 | 0.00 | 0.00 | 0.00 | 53 | 1009.1 |
| 20260508111513 | 54 | 295 | 1.0 | 16.0 | 0.00 | 0.00 | 0.00 | 53 | 1009.1 |
| 20260508110010 | 54 | 261 | 7.0 | 16.0 | 0.00 | 0.00 | 0.00 | 53 | 1009.1 |
| 20260508104507 | 53 | 298 | 4.0 | 13.0 | 0.00 | 0.00 | 0.00 | 54 | 1009.2 |
| 20260508103014 | 53 | 292 | 5.0 | 14.0 | 0.00 | 0.00 | 0.00 | 54 | 1009.2 |
| 20260508101506 | 53 | 296 | 0.0 | 10.0 | 0.00 | 0.00 | 0.00 | 53 | 1009.0 |
| 20260508100003 | 52 | 304 | 0.0 | 8.0 | 0.00 | 0.00 | 0.00 | 54 | 1009.2 |
| 20260508094501 | 51 | 284 | 0.0 | 8.0 | 0.00 | 0.00 | 0.00 | 55 | 1009.2 |
| 20260508093059 | 49 | 300 | 5.0 | 13.0 | 0.00 | 0.00 | 0.00 | 59 | 1009.3 |
| 20260508091602 | 48 | 310 | 1.0 | 9.0 | 0.00 | 0.00 | 0.00 | 59 | 1009.4 |
| 20260508090057 | 47 | 209 | 0.0 | 0.0 | 0.00 | 0.00 | 0.00 | 59 | 1009.4 |
| 20260508084555 | 47 | 209 | 0.0 | 0.0 | 0.00 | 0.00 | 0.00 | 59 | 1009.4 |
| 20260508083057 | 49 | 209 | 0.0 | 0.0 | 0.00 | 0.00 | 0.00 | 57 | 1009.3 |
| 20260508081605 | 48 | 209 | 0.0 | 0.0 | 0.00 | 0.00 | 0.00 | 58 | 1009.4 |
| 20260508080048 | 49 | 210 | 0.0 | 1.0 | 0.00 | 0.00 | 0.00 | 57 | 1009.4 |
| 20260508074546 | 49 | 210 | 0.0 | 0.0 | 0.00 | 0.00 | 0.00 | 57 | 1009.6 |
| 20260508073044 | 50 | 210 | 0.0 | 1.0 | 0.00 | 0.00 | 0.00 | 58 | 1009.4 |
| 20260508071541 | 51 | 279 | 0.0 | 0.0 | 0.00 | 0.00 | 0.00 | 55 | 1009.4 |
| 20260508070038 | 52 | 279 | 0.0 | 0.0 | 0.00 | 0.00 | 0.00 | 53 | 1009.6 |
| 20260508064534 | 52 | 287 | 0.0 | 0.0 | 0.00 | 0.00 | 0.00 | 53 | 1009.5 |
| 20260508063032 | 53 | 292 | 0.0 | 10.0 | 0.00 | 0.00 | 0.00 | 54 | 1009.5 |
| 20260508061532 | 53 | 307 | 5.0 | 11.0 | 0.00 | 0.00 | 0.00 | 54 | 1009.5 |
| 20260508060030 | 53 | 319 | 0.0 | 12.0 | 0.00 | 0.00 | 0.00 | 55 | 1009.6 |
| 20260508054528 | 52 | 296 | 5.0 | 11.0 | 0.00 | 0.00 | 0.00 | 59 | 1009.5 |
| 20260508053031 | 52 | 280 | 0.0 | 0.0 | 0.00 | 0.00 | 0.00 | 60 | 1009.5 |
| 20260508051531 | 52 | 292 | 0.0 | 0.0 | 0.00 | 0.00 | 0.00 | 60 | 1009.5 |
| 20260508050025 | 52 | 298 | 0.0 | 1.0 | 0.00 | 0.00 | 0.00 | 58 | 1009.4 |
| 20260508044525 | 53 | 301 | 0.0 | 2.0 | 0.00 | 0.00 | 0.00 | 57 | 1009.4 |
| 20260508043023 | 53 | 308 | 0.0 | 1.0 | 0.00 | 0.00 | 0.00 | 55 | 1009.5 |
| 20260508041523 | 54 | 313 | 0.0 | 1.0 | 0.00 | 0.00 | 0.00 | 54 | 1009.6 |
| 20260508040022 | 55 | 290 | 0.0 | 0.0 | 0.00 | 0.00 | 0.00 | 52 | 1009.6 |
| 20260508034529 | 55 | 297 | 0.0 | 0.0 | 0.00 | 0.00 | 0.00 | 51 | 1009.7 |
| 20260508033026 | 56 | 321 | 0.0 | 0.0 | 0.00 | 0.00 | 0.00 | 48 | 1009.6 |
| 20260508031521 | 57 | 306 | 0.0 | 12.0 | 0.00 | 0.00 | 0.00 | 48 | 1009.4 |
| 20260508030020 | 56 | 360 | 0.0 | 0.0 | 0.00 | 0.00 | 0.00 | 47 | 1009.4 |
| 20260508024523 | 56 | 9 | 0.0 | 2.0 | 0.00 | 0.00 | 0.00 | 46 | 1009.2 |
| 20260508023021 | 57 | 37 | 0.0 | 0.0 | 0.00 | 0.00 | 0.00 | 42 | 1009.1 |